createdAt,value
2023-01-03T00:01:18.243Z,2.50
2023-01-03T00:03:46.907Z,3.70
2023-01-03T00:06:19.362Z,3.28
2023-01-03T00:08:49.629Z,3.63
2023-01-03T00:11:42.982Z,3.40
2023-01-03T00:14:11.800Z,2.50
2023-01-03T00:16:40.131Z,3.17
2023-01-03T00:19:08.448Z,3.80
2023-01-03T00:21:37.216Z,3.63
2023-01-03T00:24:07.825Z,3.67
2023-01-03T00:26:36.011Z,3.20
2023-01-03T00:29:03.945Z,3.45
2023-01-03T00:31:31.820Z,2.08
2023-01-03T00:33:59.657Z,3.35
2023-01-03T00:36:27.839Z,3.40
2023-01-03T00:38:55.606Z,2.67
2023-01-03T00:41:24.811Z,3.30
2023-01-03T00:43:53.209Z,3.25
2023-01-03T00:46:22.262Z,3.38
2023-01-03T00:48:51.131Z,4.72
2023-01-03T00:51:20.859Z,2.97
2023-01-03T00:53:50.559Z,3.78
2023-01-03T00:56:20.676Z,3.97
2023-01-03T00:58:50.925Z,3.30
2023-01-03T01:01:20.732Z,3.35
2023-01-03T01:03:51.420Z,2.58
2023-01-03T01:06:22.561Z,2.60
2023-01-03T01:08:52.024Z,3.00
2023-01-03T01:11:20.598Z,2.75
2023-01-03T01:13:50.629Z,3.25
2023-01-03T01:16:21.006Z,2.55
2023-01-03T01:18:53.625Z,3.42
2023-01-03T01:21:23.369Z,2.00
2023-01-03T01:23:51.854Z,2.67
2023-01-03T01:26:21.840Z,2.95
2023-01-03T01:28:51.896Z,3.03
2023-01-03T01:31:21.748Z,2.80
2023-01-03T01:33:49.816Z,2.78
2023-01-03T01:36:20.127Z,2.65
2023-01-03T01:38:49.484Z,3.55
2023-01-03T01:41:40.929Z,2.63
2023-01-03T01:44:49.178Z,1.92
2023-01-03T01:47:25.596Z,3.22
2023-01-03T01:50:00.146Z,3.08
2023-01-03T01:52:31.013Z,3.83
2023-01-03T01:55:02.472Z,4.30
2023-01-03T01:57:31.805Z,2.97
2023-01-03T02:00:00.684Z,2.30
2023-01-03T02:02:30.091Z,3.47
2023-01-03T02:04:59.169Z,3.03
2023-01-03T02:07:27.175Z,2.15
2023-01-03T02:09:58.184Z,3.13
2023-01-03T02:12:52.253Z,2.95
2023-01-03T02:15:35.360Z,3.20
2023-01-03T02:18:18.305Z,3.10
2023-01-03T02:21:20.200Z,2.88
2023-01-03T02:24:14.578Z,2.88
2023-01-03T02:26:53.403Z,3.67
2023-01-03T02:30:06.746Z,1.73
2023-01-03T02:32:44.265Z,4.70
2023-01-03T02:35:19.540Z,3.03
2023-01-03T02:37:57.169Z,3.25
2023-01-03T02:40:33.492Z,2.90
2023-01-03T02:43:07.088Z,3.47
2023-01-03T02:46:00.874Z,2.90
2023-01-03T02:48:37.964Z,4.60
2023-01-03T02:51:13.759Z,3.53
2023-01-03T02:53:46.479Z,3.92
2023-01-03T02:56:19.425Z,3.08
2023-01-03T02:58:53.404Z,3.22
2023-01-03T03:01:22.317Z,3.35
2023-01-03T03:03:52.079Z,2.05
2023-01-03T03:06:27.763Z,3.70
2023-01-03T03:08:55.580Z,3.53
2023-01-03T03:11:42.722Z,3.10
2023-01-03T03:14:17.791Z,3.10
2023-01-03T03:16:51.439Z,3.78
2023-01-03T03:19:45.401Z,2.88
2023-01-03T03:22:39.593Z,2.58
2023-01-03T03:25:12.187Z,2.33
2023-01-03T03:27:59.778Z,3.22
2023-01-03T03:30:31.793Z,2.65
2023-01-03T03:33:06.101Z,2.70
2023-01-03T03:35:42.600Z,2.45
2023-01-03T03:38:14.882Z,2.75
2023-01-03T03:41:06.575Z,3.10
2023-01-03T03:44:01.602Z,2.08
2023-01-03T03:46:35.868Z,3.03
2023-01-03T03:49:27.203Z,2.83
2023-01-03T03:52:00.856Z,3.28
2023-01-03T03:54:32.019Z,3.30
2023-01-03T03:57:08.049Z,3.03
2023-01-03T03:59:36.766Z,2.83
2023-01-03T04:02:07.378Z,3.47
2023-01-03T04:04:39.420Z,3.58
2023-01-03T04:07:08.625Z,3.15
2023-01-03T04:09:36.400Z,2.67
2023-01-03T04:12:04.444Z,2.97
2023-01-03T04:14:32.557Z,22.15
2023-01-03T04:17:00.427Z,3.78
2023-01-03T04:19:28.774Z,2.78
2023-01-03T04:21:56.598Z,2.88
2023-01-03T04:24:26.112Z,2.75
2023-01-03T04:26:54.510Z,3.22
2023-01-03T04:29:22.293Z,3.15
2023-01-03T04:31:50.425Z,3.20
2023-01-03T04:34:18.763Z,3.47
2023-01-03T04:36:47.001Z,3.42
2023-01-03T04:39:14.806Z,2.90
2023-01-03T04:41:44.414Z,2.53
2023-01-03T04:44:11.293Z,3.53
2023-01-03T04:46:40.948Z,3.30
2023-01-03T04:49:11.386Z,3.00
2023-01-03T04:51:39.800Z,1.90
2023-01-03T04:54:08.028Z,3.00
2023-01-03T04:56:38.692Z,3.28
2023-01-03T04:59:07.861Z,2.20
2023-01-03T05:01:35.853Z,2.25
2023-01-03T05:04:05.076Z,2.97
2023-01-03T05:06:32.914Z,3.13
2023-01-03T05:09:00.706Z,3.22
2023-01-03T05:11:28.891Z,3.33
2023-01-03T05:13:56.667Z,3.30
2023-01-03T05:16:25.854Z,3.10
2023-01-03T05:18:54.730Z,2.38
2023-01-03T05:21:40.528Z,2.60
2023-01-03T05:24:29.634Z,3.25
2023-01-03T05:27:00.502Z,3.28
2023-01-03T05:29:30.184Z,1.90
2023-01-03T05:32:00.005Z,3.83
2023-01-03T05:34:27.864Z,3.45
2023-01-03T05:36:55.982Z,2.67
2023-01-03T05:39:23.882Z,3.10
2023-01-03T05:42:01.190Z,5.78
2023-01-03T05:44:29.234Z,3.58
2023-01-03T05:46:57.111Z,3.63
2023-01-03T05:49:26.346Z,3.47
2023-01-03T05:51:54.677Z,3.63
2023-01-03T05:54:22.531Z,3.88
2023-01-03T05:56:51.192Z,3.25
2023-01-03T05:59:19.595Z,3.83
2023-01-03T06:01:47.543Z,3.28
2023-01-03T06:04:15.491Z,3.78
2023-01-03T06:06:44.782Z,3.10
2023-01-03T06:09:12.683Z,4.10
2023-01-03T06:11:40.962Z,4.65
2023-01-03T06:14:08.853Z,2.92
2023-01-03T06:16:54.323Z,3.92
2023-01-03T06:19:22.256Z,3.95
2023-01-03T06:21:51.447Z,3.85
2023-01-03T06:24:19.276Z,3.83
2023-01-03T06:26:47.185Z,3.88
2023-01-03T06:29:14.989Z,4.15
2023-01-03T06:31:42.793Z,3.17
2023-01-03T06:34:10.855Z,4.00
2023-01-03T06:36:38.701Z,4.55
2023-01-03T06:39:08.840Z,4.82
2023-01-03T06:41:36.917Z,3.97
2023-01-03T06:44:05.494Z,4.40
2023-01-03T06:46:51.321Z,4.88
2023-01-03T06:49:37.127Z,4.57
2023-01-03T06:52:28.499Z,4.03
2023-01-03T06:54:57.907Z,4.35
2023-01-03T06:57:27.521Z,4.68
2023-01-03T06:59:56.905Z,4.25
2023-01-03T07:02:27.632Z,4.32
2023-01-03T07:04:58.312Z,3.47
2023-01-03T07:07:26.837Z,4.32
2023-01-03T07:09:57.608Z,4.72
2023-01-03T07:12:43.895Z,4.15
2023-01-03T07:15:12.941Z,4.70
2023-01-03T07:17:41.946Z,5.15
2023-01-03T07:20:13.616Z,5.65
2023-01-03T07:22:41.677Z,3.40
2023-01-03T07:25:11.815Z,5.43
2023-01-03T07:27:41.154Z,5.20
2023-01-03T07:30:10.211Z,5.05
2023-01-03T07:32:38.409Z,4.93
2023-01-03T07:35:07.977Z,4.80
2023-01-03T07:37:36.304Z,5.10
2023-01-03T07:40:05.324Z,5.07
2023-01-03T07:42:51.974Z,6.05
2023-01-03T07:45:20.732Z,5.25
2023-01-03T07:47:49.691Z,4.88
2023-01-03T07:50:19.193Z,5.45
2023-01-03T07:52:47.556Z,4.88
2023-01-03T07:55:15.998Z,5.10
2023-01-03T07:57:48.354Z,10.68
2023-01-03T08:00:17.292Z,5.07
2023-01-03T08:02:45.427Z,4.75
2023-01-03T08:05:14.623Z,5.05
2023-01-03T08:07:46.504Z,4.78
2023-01-03T08:10:33.387Z,5.40
2023-01-03T08:13:21.368Z,6.63
2023-01-03T08:15:51.562Z,7.30
2023-01-03T08:18:21.483Z,9.00
2023-01-03T08:20:49.786Z,8.75
2023-01-03T08:23:18.032Z,11.20
2023-01-03T08:25:45.976Z,12.20
2023-01-03T08:28:15.283Z,10.52
2023-01-03T08:30:46.258Z,9.25
2023-01-03T08:33:16.881Z,8.95
2023-01-03T08:35:52.597Z,8.25
2023-01-03T08:38:25.971Z,9.27
2023-01-03T08:40:55.266Z,7.57
2023-01-03T08:43:25.458Z,7.63
2023-01-03T08:45:53.734Z,8.50
2023-01-03T08:48:23.740Z,8.70
2023-01-03T08:50:51.891Z,7.75
2023-01-03T08:53:20.448Z,7.15
2023-01-03T08:55:48.535Z,7.70
2023-01-03T08:58:17.142Z,8.80
2023-01-03T09:00:46.653Z,6.15
2023-01-03T09:03:14.746Z,8.43
2023-01-03T09:05:42.821Z,7.28
2023-01-03T09:08:10.718Z,6.88
2023-01-03T09:10:47.048Z,7.97
2023-01-03T09:13:16.085Z,7.10
2023-01-03T09:15:44.097Z,7.10
2023-01-03T09:18:13.342Z,6.47
2023-01-03T09:20:44.019Z,6.07
2023-01-03T09:23:11.937Z,8.13
2023-01-03T09:25:39.823Z,7.53
2023-01-03T09:28:07.799Z,6.93
2023-01-03T09:30:35.642Z,7.30
2023-01-03T09:33:04.942Z,8.60
2023-01-03T09:35:34.652Z,5.65
2023-01-03T09:38:02.529Z,7.00
2023-01-03T09:40:31.735Z,7.53
2023-01-03T09:43:21.440Z,8.10
2023-01-03T09:45:56.506Z,8.70
2023-01-03T09:48:32.407Z,8.18
2023-01-03T09:51:22.598Z,8.68
2023-01-03T09:54:08.564Z,8.27
2023-01-03T09:56:54.034Z,8.38
2023-01-03T09:59:39.489Z,7.55
2023-01-03T10:02:41.671Z,8.30
2023-01-03T10:05:30.932Z,8.60
2023-01-03T10:08:25.689Z,8.10
2023-01-03T10:11:02.248Z,7.75
2023-01-03T10:13:51.992Z,5.75
2023-01-03T10:16:31.236Z,4.82
2023-01-03T10:19:19.339Z,4.85
2023-01-03T10:21:56.676Z,4.07
2023-01-03T10:24:30.006Z,3.67
2023-01-03T10:27:08.989Z,4.18
2023-01-03T10:29:37.035Z,3.03
2023-01-03T10:32:20.619Z,5.38
2023-01-03T10:35:03.405Z,4.10
2023-01-03T10:37:31.253Z,3.20
2023-01-03T10:40:05.369Z,3.88
2023-01-03T10:42:36.403Z,4.60
2023-01-03T10:45:11.850Z,4.32
2023-01-03T10:47:40.078Z,4.00
2023-01-03T10:50:09.516Z,3.67
2023-01-03T10:52:41.113Z,6.03
2023-01-03T10:55:16.327Z,6.47
2023-01-03T10:57:48.754Z,6.47
2023-01-03T11:00:26.536Z,6.07
2023-01-03T11:02:56.085Z,4.43
2023-01-03T11:05:26.151Z,5.03
2023-01-03T11:07:57.397Z,3.78
2023-01-03T11:10:34.922Z,3.75
2023-01-03T11:13:02.782Z,3.85
2023-01-03T11:15:39.592Z,3.80
2023-01-03T11:18:18.738Z,3.53
2023-01-03T11:20:51.509Z,2.83
2023-01-03T11:23:27.415Z,5.18
2023-01-03T11:26:03.909Z,3.70
2023-01-03T11:29:14.132Z,3.13
2023-01-03T11:31:51.726Z,3.08
2023-01-03T11:35:11.696Z,3.58
2023-01-03T11:37:35.488Z,4.35
2023-01-03T11:40:16.677Z,3.67
2023-01-03T11:42:59.001Z,3.60
2023-01-03T11:45:49.221Z,3.65
2023-01-03T11:48:41.906Z,3.03
2023-01-03T11:51:16.862Z,5.03
2023-01-03T11:53:57.022Z,4.40
2023-01-03T11:56:31.086Z,3.55
2023-01-03T11:59:16.152Z,3.70
2023-01-03T12:02:22.273Z,6.07
2023-01-03T12:05:06.258Z,5.07
2023-01-03T12:07:49.153Z,4.90
2023-01-03T12:10:23.639Z,4.35
2023-01-03T12:13:11.573Z,3.80
2023-01-03T12:15:47.858Z,4.93
2023-01-03T12:18:22.336Z,4.43
2023-01-03T12:20:57.484Z,6.28
2023-01-03T12:23:40.878Z,6.35
2023-01-03T12:26:12.867Z,3.47
2023-01-03T12:28:43.658Z,4.28
2023-01-03T12:31:29.424Z,2.88
2023-01-03T12:34:07.338Z,3.97
2023-01-03T12:36:42.439Z,3.65
2023-01-03T12:39:33.457Z,3.70
2023-01-03T12:42:07.668Z,3.92
2023-01-03T12:44:40.212Z,3.80
2023-01-03T12:47:21.860Z,3.70
2023-01-03T12:49:57.195Z,3.78
2023-01-03T12:52:27.251Z,3.70
2023-01-03T12:55:02.917Z,3.72
2023-01-03T12:58:19.153Z,3.78
2023-01-03T13:00:59.716Z,3.60
2023-01-03T13:03:35.591Z,5.03
2023-01-03T13:06:08.192Z,2.90
2023-01-03T13:08:42.641Z,2.75
2023-01-03T13:11:19.875Z,3.40
2023-01-03T13:14:00.341Z,3.97
2023-01-03T13:16:44.836Z,5.15
2023-01-03T13:19:53.458Z,3.95
2023-01-03T13:22:35.959Z,3.95
2023-01-03T13:25:41.349Z,4.60
2023-01-03T13:28:32.251Z,4.55
2023-01-03T13:31:46.519Z,4.88
2023-01-03T13:34:34.401Z,4.70
2023-01-03T13:37:17.936Z,5.00
2023-01-03T13:39:59.919Z,5.03
2023-01-03T13:42:31.229Z,5.45
2023-01-03T13:45:35.781Z,4.72
2023-01-03T13:48:19.621Z,4.35
2023-01-03T13:51:24.332Z,4.85
2023-01-03T13:54:00.485Z,6.18
2023-01-03T13:56:31.137Z,4.55
2023-01-03T13:59:03.597Z,4.00
2023-01-03T14:01:49.213Z,4.22
2023-01-03T14:05:00.721Z,4.50
2023-01-03T14:07:54.676Z,4.72
2023-01-03T14:10:33.979Z,5.13
2023-01-03T14:13:28.068Z,5.60
2023-01-03T14:16:15.295Z,5.90
2023-01-03T14:18:49.064Z,5.10
2023-01-03T14:21:26.142Z,6.78
2023-01-03T14:24:01.270Z,5.57
2023-01-03T14:26:33.080Z,6.40
2023-01-03T14:29:01.120Z,6.78
2023-01-03T14:31:29.686Z,7.07
2023-01-03T14:34:00.270Z,5.88
2023-01-03T14:36:29.467Z,5.05
2023-01-03T14:38:59.312Z,6.03
2023-01-03T14:41:32.593Z,5.97
2023-01-03T14:44:02.744Z,6.43
2023-01-03T14:46:32.411Z,5.25
2023-01-03T14:49:03.742Z,6.82
2023-01-03T14:51:34.400Z,5.13
2023-01-03T14:54:03.626Z,7.63
2023-01-03T14:56:34.058Z,5.18
2023-01-03T14:59:02.695Z,4.28
2023-01-03T15:01:30.787Z,5.57
2023-01-03T15:04:01.066Z,5.00
2023-01-03T15:06:30.969Z,5.50
2023-01-03T15:09:01.655Z,4.88
2023-01-03T15:11:34.415Z,5.18
2023-01-03T15:14:06.142Z,5.22
2023-01-03T15:16:37.592Z,5.63
2023-01-03T15:19:14.077Z,4.95
2023-01-03T15:21:43.436Z,4.18
2023-01-03T15:24:16.390Z,4.97
2023-01-03T15:26:47.882Z,4.78
2023-01-03T15:29:17.765Z,4.68
2023-01-03T15:31:56.754Z,5.65
2023-01-03T15:34:37.187Z,3.80
2023-01-03T15:37:12.310Z,5.50
2023-01-03T15:39:43.550Z,6.55
2023-01-03T15:42:45.203Z,4.07
2023-01-03T15:45:20.677Z,5.15
2023-01-03T15:47:49.550Z,6.30
2023-01-03T15:50:19.712Z,5.50
2023-01-03T15:52:48.295Z,6.75
2023-01-03T15:55:17.264Z,6.47
2023-01-03T15:57:51.500Z,5.82
2023-01-03T16:00:23.343Z,5.35
2023-01-03T16:02:52.071Z,4.30
2023-01-03T16:05:23.007Z,6.57
2023-01-03T16:07:52.016Z,5.43
2023-01-03T16:10:21.668Z,5.72
2023-01-03T16:12:51.169Z,6.43
2023-01-03T16:15:22.204Z,6.32
2023-01-03T16:17:52.487Z,5.68
2023-01-03T16:20:21.006Z,5.78
2023-01-03T16:23:00.837Z,5.50
2023-01-03T16:25:30.945Z,4.90
2023-01-03T16:28:00.625Z,7.78
2023-01-03T16:30:28.514Z,6.35
2023-01-03T16:32:56.378Z,11.95
2023-01-03T16:35:24.513Z,6.28
2023-01-03T16:37:52.309Z,7.65
2023-01-03T16:40:21.926Z,6.28
2023-01-03T16:42:50.188Z,5.65
2023-01-03T16:45:19.746Z,7.28
2023-01-03T16:47:48.045Z,7.30
2023-01-03T16:50:19.053Z,6.25
2023-01-03T16:52:52.376Z,7.55
2023-01-03T16:55:26.456Z,6.13
2023-01-03T16:57:55.408Z,10.77
2023-01-03T17:00:26.612Z,7.35
2023-01-03T17:02:56.062Z,7.75
2023-01-03T17:05:24.228Z,7.63
2023-01-03T17:07:55.644Z,13.48
2023-01-03T17:10:27.792Z,12.45
2023-01-03T17:12:56.899Z,14.32
2023-01-03T17:15:26.845Z,12.75
2023-01-03T17:17:54.729Z,12.07
2023-01-03T17:20:24.459Z,10.52
2023-01-03T17:22:54.731Z,11.77
2023-01-03T17:25:22.874Z,11.82
2023-01-03T17:27:54.044Z,12.50
2023-01-03T17:30:25.028Z,12.15
2023-01-03T17:32:55.511Z,11.55
2023-01-03T17:35:23.616Z,10.35
2023-01-03T17:38:23.985Z,10.07
2023-01-03T17:40:42.050Z,11.85
2023-01-03T17:43:19.360Z,13.40
2023-01-03T17:46:05.826Z,12.73
2023-01-03T17:48:52.892Z,12.77
2023-01-03T17:51:21.822Z,12.77
2023-01-03T17:53:51.354Z,11.55
2023-01-03T17:56:21.040Z,10.60
2023-01-03T17:58:55.974Z,10.85
2023-01-03T18:04:04.726Z,11.80
2023-01-03T18:06:32.735Z,12.48
2023-01-03T18:09:05.334Z,11.07
2023-01-03T18:11:33.260Z,11.52
2023-01-03T18:14:01.297Z,10.75
2023-01-03T18:16:29.718Z,10.75
2023-01-03T18:18:57.994Z,9.95
2023-01-03T18:21:30.242Z,9.30
2023-01-03T18:24:01.344Z,9.27
2023-01-03T18:26:33.190Z,7.57
2023-01-03T18:29:01.067Z,9.93
2023-01-03T18:31:30.484Z,9.43
2023-01-03T18:33:58.911Z,9.20
2023-01-03T18:36:30.169Z,6.93
2023-01-03T18:39:03.689Z,8.70
2023-01-03T18:41:33.969Z,9.20
2023-01-03T18:44:02.303Z,8.68
2023-01-03T18:46:30.902Z,7.15
2023-01-03T18:48:58.913Z,7.55
2023-01-03T18:51:29.977Z,7.35
2023-01-03T18:54:00.377Z,8.68
2023-01-03T18:56:33.706Z,8.80
2023-01-03T18:59:05.730Z,8.00
2023-01-03T19:01:33.972Z,9.20
2023-01-03T19:04:02.027Z,10.23
2023-01-03T19:06:33.687Z,10.70
2023-01-03T19:09:04.916Z,8.70
2023-01-03T19:11:35.850Z,7.65
2023-01-03T19:14:05.960Z,8.68
2023-01-03T19:16:36.666Z,9.55
2023-01-03T19:19:06.901Z,10.52
2023-01-03T19:21:38.293Z,10.23
2023-01-03T19:24:08.987Z,8.77
2023-01-03T19:26:40.938Z,10.95
2023-01-03T19:29:16.674Z,27.08
2023-01-03T19:31:46.675Z,18.33
2023-01-03T19:34:18.766Z,14.63
2023-01-03T19:36:49.467Z,13.80
2023-01-03T19:39:24.416Z,14.38
2023-01-03T19:42:13.865Z,11.85
2023-01-03T19:44:42.468Z,10.80
2023-01-03T19:47:14.281Z,12.73
2023-01-03T19:49:43.864Z,11.52
2023-01-03T19:52:13.129Z,12.00
2023-01-03T19:54:41.657Z,11.35
2023-01-03T19:57:18.153Z,10.18
2023-01-03T19:59:52.828Z,9.68
2023-01-03T20:02:37.411Z,9.32
2023-01-03T20:05:15.842Z,10.45
2023-01-03T20:07:45.942Z,9.95
2023-01-03T20:10:22.206Z,9.90
2023-01-03T20:12:53.304Z,8.30
2023-01-03T20:15:26.751Z,8.18
2023-01-03T20:17:55.359Z,8.30
2023-01-03T20:20:25.193Z,8.40
2023-01-03T20:23:06.343Z,9.27
2023-01-03T20:25:37.030Z,8.00
2023-01-03T20:28:05.756Z,8.20
2023-01-03T20:30:35.580Z,8.05
2023-01-03T20:33:03.587Z,7.85
2023-01-03T20:38:25.195Z,7.18
2023-01-03T20:40:53.865Z,7.32
2023-01-03T20:43:21.824Z,11.07
2023-01-03T20:45:54.874Z,15.30
2023-01-03T20:48:26.669Z,13.95
2023-01-03T20:50:55.927Z,10.95
2023-01-03T20:53:26.845Z,8.57
2023-01-03T20:55:55.460Z,10.57
2023-01-03T20:58:26.145Z,10.43
2023-01-03T21:01:04.157Z,11.57
2023-01-03T21:03:33.937Z,9.60
2023-01-03T21:06:02.405Z,8.98
2023-01-03T21:08:50.496Z,8.15
2023-01-03T21:11:18.736Z,8.75
2023-01-03T21:13:46.571Z,8.75
2023-01-03T21:16:39.691Z,7.40
2023-01-03T21:19:12.584Z,10.23
2023-01-03T21:21:41.983Z,12.35
2023-01-03T21:24:12.855Z,12.70
2023-01-03T21:26:41.876Z,12.15
2023-01-03T21:29:10.028Z,10.43
2023-01-03T21:31:39.467Z,9.75
2023-01-03T21:34:09.306Z,9.13
2023-01-03T21:36:37.302Z,8.52
2023-01-03T21:39:06.128Z,6.82
2023-01-03T21:41:56.889Z,6.70
2023-01-03T21:44:24.723Z,7.00
2023-01-03T21:46:52.688Z,6.55
2023-01-03T21:49:21.589Z,12.07
2023-01-03T21:51:49.391Z,12.95
2023-01-03T21:54:17.287Z,11.77
2023-01-03T21:56:47.273Z,9.73
2023-01-03T21:59:16.464Z,10.10
2023-01-03T22:02:02.713Z,9.90
2023-01-03T22:04:31.017Z,9.48
2023-01-03T22:07:00.920Z,9.80
2023-01-03T22:09:47.162Z,10.57
2023-01-03T22:12:16.722Z,9.55
2023-01-03T22:14:44.906Z,10.77
2023-01-03T22:17:13.226Z,9.88
2023-01-03T22:19:41.269Z,9.50
2023-01-03T22:22:09.669Z,12.85
2023-01-03T22:24:37.841Z,11.10
2023-01-03T22:27:05.686Z,11.52
2023-01-03T22:29:34.872Z,12.38
2023-01-03T22:32:03.155Z,11.55
2023-01-03T22:34:31.021Z,10.10
2023-01-03T22:36:58.829Z,9.60
2023-01-03T22:39:26.783Z,9.35
2023-01-03T22:41:54.659Z,9.48
2023-01-03T22:44:22.482Z,9.65
2023-01-03T22:46:52.273Z,10.15
2023-01-03T22:49:20.121Z,10.75
2023-01-03T22:51:47.962Z,9.85
2023-01-03T22:54:16.014Z,9.98
2023-01-03T22:56:43.806Z,9.38
2023-01-03T22:59:11.641Z,9.52
2023-01-03T23:01:39.942Z,11.10
2023-01-03T23:04:09.265Z,11.68
2023-01-03T23:06:37.275Z,9.52
2023-01-03T23:09:05.767Z,7.93
2023-01-03T23:11:51.877Z,8.27
2023-01-03T23:14:21.305Z,8.80
2023-01-03T23:16:50.806Z,7.75
2023-01-03T23:19:23.414Z,8.20
2023-01-03T23:21:51.933Z,8.32
2023-01-03T23:24:22.401Z,7.93
2023-01-03T23:26:51.208Z,7.88
2023-01-03T23:29:19.665Z,7.90
2023-01-03T23:31:47.529Z,7.43
2023-01-03T23:34:15.754Z,8.27
2023-01-03T23:36:44.984Z,7.63
2023-01-03T23:39:13.789Z,7.95
2023-01-03T23:41:41.669Z,6.32
2023-01-03T23:44:09.679Z,9.68
2023-01-03T23:46:37.518Z,7.68
2023-01-03T23:49:05.705Z,7.15
2023-01-03T23:51:33.529Z,7.45
2023-01-03T23:54:03.777Z,7.43
2023-01-03T23:56:32.141Z,6.97
2023-01-03T23:59:00.328Z,6.70
